Time;durP1;ratioP1;P1;durP2;ratioP2;P2;SDS_P1;SDS_P2;PMS_P1;PMS_P2;Temp;Humidity;BMP_temperature;BMP_pressure;BME280_temperature;BME280_humidity;BME280_pressure;Samples;Min_cycle;Max_cycle;Signal;HPM_P1;HPM_P2
2022/06/13 00:01:31;;;;;;;7.65;3.58;;;;;;;;;;5096646;28;20063;-73
2022/06/13 00:03:58;;;;;;;7.93;3.85;;;;;;;;;;5101778;28;20107;-72
2022/06/13 00:06:24;;;;;;;8.43;3.58;;;;;;;;;;5102193;28;20487;-72
2022/06/13 00:08:49;;;;;;;7.78;3.63;;;;;;;;;;5100496;28;20052;-71
2022/06/13 00:11:17;;;;;;;8.85;3.90;;;;;;;;;;5104384;28;20024;-74
2022/06/13 00:13:45;;;;;;;9.07;3.70;;;;;;;;;;5097943;28;20586;-75
2022/06/13 00:16:12;;;;;;;7.43;3.55;;;;;;;;;;5100776;28;20479;-75
2022/06/13 00:18:37;;;;;;;7.03;3.42;;;;;;;;;;5105998;28;20113;-72
2022/06/13 00:21:03;;;;;;;6.32;3.25;;;;;;;;;;5103596;27;20130;-75
2022/06/13 00:23:29;;;;;;;7.65;3.47;;;;;;;;;;5103066;27;20019;-72
2022/06/13 00:25:55;;;;;;;5.80;3.08;;;;;;;;;;5103657;27;20077;-71
2022/06/13 00:28:20;;;;;;;9.90;4.38;;;;;;;;;;5104355;28;20050;-75
2022/06/13 00:30:45;;;;;;;6.65;3.50;;;;;;;;;;5106202;27;20051;-74
2022/06/13 00:33:11;;;;;;;8.30;3.90;;;;;;;;;;5100809;27;20066;-71
2022/06/13 00:35:37;;;;;;;6.53;3.88;;;;;;;;;;5099462;27;20056;-75
2022/06/13 00:38:02;;;;;;;10.00;3.40;;;;;;;;;;5108337;28;20059;-73
2022/06/13 00:40:30;;;;;;;10.98;4.10;;;;;;;;;;5103348;27;20032;-72
2022/06/13 00:42:56;;;;;;;8.02;3.55;;;;;;;;;;5108237;28;20024;-75
2022/06/13 00:45:24;;;;;;;6.30;3.55;;;;;;;;;;5104364;27;20047;-75
2022/06/13 00:47:52;;;;;;;7.88;3.85;;;;;;;;;;5109050;28;20027;-71
2022/06/13 00:50:43;;;;;;;6.50;3.50;;;;;;;;;;5101372;28;20081;-72
2022/06/13 00:53:18;;;;;;;6.60;3.05;;;;;;;;;;5109071;28;20063;-71
2022/06/13 00:55:46;;;;;;;6.03;3.25;;;;;;;;;;5103602;27;20088;-71
2022/06/13 00:58:12;;;;;;;7.03;3.17;;;;;;;;;;5104050;27;20458;-74
2022/06/13 01:00:38;;;;;;;8.95;3.78;;;;;;;;;;5101282;27;20030;-75
2022/06/13 01:03:05;;;;;;;7.97;3.10;;;;;;;;;;5107766;27;20028;-72
2022/06/13 01:05:34;;;;;;;7.32;3.50;;;;;;;;;;5100744;27;20095;-73
2022/06/13 01:08:03;;;;;;;6.85;3.10;;;;;;;;;;5106708;28;20410;-71
2022/06/13 01:13:14;;;;;;;5.38;2.90;;;;;;;;;;5104129;27;20251;-73
2022/06/13 01:16:15;;;;;;;6.60;3.33;;;;;;;;;;5103599;27;20671;-75
2022/06/13 01:19:06;;;;;;;4.38;2.70;;;;;;;;;;5103945;28;20042;-75
2022/06/13 01:21:41;;;;;;;6.22;3.17;;;;;;;;;;5104856;27;20030;-74
2022/06/13 01:24:06;;;;;;;7.10;3.03;;;;;;;;;;5100247;27;20036;-75
2022/06/13 01:26:32;;;;;;;6.82;3.22;;;;;;;;;;5103258;27;20407;-75
2022/06/13 01:29:27;;;;;;;7.97;3.00;;;;;;;;;;5104955;28;20030;-71
2022/06/13 01:32:03;;;;;;;5.25;3.17;;;;;;;;;;5102645;27;20152;-75
2022/06/13 01:34:40;;;;;;;6.97;3.08;;;;;;;;;;5101814;28;20027;-74
2022/06/13 01:37:11;;;;;;;6.00;2.92;;;;;;;;;;5104915;27;20047;-75
2022/06/13 01:40:01;;;;;;;6.22;2.90;;;;;;;;;;5105449;27;20157;-70
2022/06/13 01:42:44;;;;;;;8.23;2.92;;;;;;;;;;5102534;28;20074;-75
2022/06/13 01:45:37;;;;;;;6.10;2.80;;;;;;;;;;5100828;27;20092;-75
2022/06/13 01:48:18;;;;;;;6.97;2.80;;;;;;;;;;5106027;27;20069;-71
2022/06/13 01:50:53;;;;;;;9.55;3.20;;;;;;;;;;5104128;28;20027;-75
2022/06/13 01:53:40;;;;;;;7.20;3.13;;;;;;;;;;5102649;28;20544;-75
2022/06/13 01:56:10;;;;;;;7.88;3.30;;;;;;;;;;5105487;28;20387;-73
2022/06/13 01:58:56;;;;;;;7.97;3.17;;;;;;;;;;5100863;27;20081;-75
2022/06/13 02:01:36;;;;;;;5.97;3.58;;;;;;;;;;5097765;27;20123;-75
2022/06/13 02:04:07;;;;;;;6.70;3.38;;;;;;;;;;5098994;28;20030;-75
2022/06/13 02:06:38;;;;;;;7.05;3.42;;;;;;;;;;5099466;28;20562;-75
2022/06/13 02:09:20;;;;;;;7.15;3.10;;;;;;;;;;5104019;28;20391;-74
2022/06/13 02:11:54;;;;;;;7.78;3.53;;;;;;;;;;5105026;28;20577;-72
2022/06/13 02:14:34;;;;;;;7.10;3.10;;;;;;;;;;5100097;28;20092;-75
2022/06/13 02:17:11;;;;;;;5.65;2.53;;;;;;;;;;5101280;28;20068;-74
2022/06/13 02:20:29;;;;;;;6.88;2.95;;;;;;;;;;5105544;28;20034;-73
2022/06/13 02:22:58;;;;;;;6.18;2.90;;;;;;;;;;5083534;27;20071;-75
2022/06/13 02:25:28;;;;;;;8.00;3.28;;;;;;;;;;5102935;27;20027;-75
2022/06/13 02:28:12;;;;;;;7.97;3.22;;;;;;;;;;5098405;27;20020;-70
2022/06/13 02:30:47;;;;;;;7.05;2.97;;;;;;;;;;5101233;27;20028;-71
2022/06/13 02:33:25;;;;;;;5.78;3.17;;;;;;;;;;5102843;28;20027;-70
2022/06/13 02:35:58;;;;;;;6.47;2.95;;;;;;;;;;5097116;27;20391;-71
2022/06/13 02:38:37;;;;;;;6.55;3.28;;;;;;;;;;5101894;27;20041;-75
2022/06/13 02:41:13;;;;;;;6.18;3.33;;;;;;;;;;5106121;28;20035;-71
2022/06/13 02:43:51;;;;;;;7.28;3.20;;;;;;;;;;5104084;28;20012;-75
2022/06/13 02:46:24;;;;;;;7.15;3.55;;;;;;;;;;5102452;27;20036;-71
2022/06/13 02:48:55;;;;;;;7.30;3.25;;;;;;;;;;5104595;28;20436;-75
2022/06/13 02:51:43;;;;;;;9.50;3.42;;;;;;;;;;5103013;28;20102;-75
2022/06/13 02:54:23;;;;;;;5.93;3.28;;;;;;;;;;5103615;27;20043;-73
2022/06/13 03:00:05;;;;;;;6.60;3.35;;;;;;;;;;5102248;28;20046;-71
2022/06/13 03:02:52;;;;;;;5.32;3.10;;;;;;;;;;5100149;27;20032;-75
2022/06/13 03:05:53;;;;;;;10.68;3.60;;;;;;;;;;5102092;28;20019;-72
2022/06/13 03:08:38;;;;;;;9.20;3.40;;;;;;;;;;5100554;27;20380;-70
2022/06/13 03:11:24;;;;;;;7.03;3.35;;;;;;;;;;5100257;28;20028;-75
2022/06/13 03:14:07;;;;;;;6.40;3.28;;;;;;;;;;5099787;27;20020;-71
2022/06/13 03:16:42;;;;;;;8.18;3.47;;;;;;;;;;5098855;28;20066;-74
2022/06/13 03:19:12;;;;;;;6.40;3.30;;;;;;;;;;5097777;28;20039;-74
2022/06/13 03:21:45;;;;;;;5.95;3.30;;;;;;;;;;5101139;28;20437;-75
2022/06/13 03:24:24;;;;;;;6.70;3.13;;;;;;;;;;5104838;28;20060;-75
2022/06/13 03:27:17;;;;;;;7.45;3.45;;;;;;;;;;5101775;28;20047;-73
2022/06/13 03:30:06;;;;;;;6.68;3.53;;;;;;;;;;5094588;27;20522;-75
2022/06/13 03:32:41;;;;;;;7.55;3.35;;;;;;;;;;5100168;28;20400;-73
2022/06/13 03:35:12;;;;;;;8.40;3.35;;;;;;;;;;5096541;28;20044;-75
2022/06/13 03:37:50;;;;;;;7.60;3.47;;;;;;;;;;5104694;28;20115;-71
2022/06/13 03:40:20;;;;;;;8.43;3.13;;;;;;;;;;5100686;28;20042;-75
2022/06/13 03:43:01;;;;;;;6.88;3.42;;;;;;;;;;5104114;27;20492;-75
2022/06/13 03:45:44;;;;;;;8.27;3.65;;;;;;;;;;5100682;28;20031;-73
2022/06/13 03:48:20;;;;;;;6.47;3.30;;;;;;;;;;5114926;27;20058;-74
2022/06/13 03:50:53;;;;;;;7.95;3.92;;;;;;;;;;5101802;28;20029;-75
2022/06/13 03:53:33;;;;;;;9.18;3.90;;;;;;;;;;5098261;28;20046;-74
2022/06/13 03:56:06;;;;;;;7.38;3.83;;;;;;;;;;5099879;28;20456;-73
2022/06/13 03:58:45;;;;;;;7.78;3.67;;;;;;;;;;5095854;28;20028;-75
2022/06/13 04:01:23;;;;;;;7.85;4.00;;;;;;;;;;5095644;28;20075;-72
2022/06/13 04:03:48;;;;;;;8.98;4.10;;;;;;;;;;5096773;28;20020;-73
2022/06/13 04:06:34;;;;;;;7.70;3.83;;;;;;;;;;5096567;28;20506;-73
2022/06/13 04:09:03;;;;;;;7.53;3.90;;;;;;;;;;5098518;28;20019;-74
2022/06/13 04:11:50;;;;;;;8.38;3.60;;;;;;;;;;5103044;28;20486;-75
2022/06/13 04:14:47;;;;;;;7.63;4.13;;;;;;;;;;5100600;28;20030;-72
2022/06/13 04:17:48;;;;;;;7.28;3.67;;;;;;;;;;5096985;28;20028;-73
2022/06/13 04:20:30;;;;;;;8.25;3.60;;;;;;;;;;5043023;28;20068;-71
2022/06/13 04:23:20;;;;;;;7.43;4.10;;;;;;;;;;5093555;28;20425;-71
2022/06/13 04:26:10;;;;;;;6.65;3.92;;;;;;;;;;5102040;28;20264;-73
2022/06/13 04:28:36;;;;;;;9.15;4.28;;;;;;;;;;5097727;28;20051;-71
2022/06/13 04:31:05;;;;;;;12.45;4.18;;;;;;;;;;5100419;28;20198;-72
2022/06/13 04:33:50;;;;;;;10.68;4.88;;;;;;;;;;5097075;28;20484;-71
2022/06/13 04:36:18;;;;;;;10.13;4.53;;;;;;;;;;5099225;28;20040;-71
2022/06/13 04:38:47;;;;;;;10.10;4.30;;;;;;;;;;5097266;28;20015;-75
2022/06/13 04:41:14;;;;;;;10.88;4.45;;;;;;;;;;5099735;28;20019;-75
2022/06/13 04:43:46;;;;;;;8.10;3.78;;;;;;;;;;5100110;28;20115;-74
2022/06/13 04:46:16;;;;;;;10.10;4.20;;;;;;;;;;5102780;27;20035;-75
2022/06/13 04:48:45;;;;;;;10.73;4.78;;;;;;;;;;5102434;28;20694;-72
2022/06/13 04:51:15;;;;;;;8.30;3.80;;;;;;;;;;5101939;28;20028;-74
2022/06/13 04:53:55;;;;;;;7.82;4.03;;;;;;;;;;5096292;28;20024;-73
2022/06/13 04:56:22;;;;;;;7.22;3.80;;;;;;;;;;5102009;28;20525;-75
2022/06/13 04:58:49;;;;;;;9.55;4.28;;;;;;;;;;5103740;28;20045;-74
2022/06/13 05:01:17;;;;;;;7.75;4.03;;;;;;;;;;5100097;28;20035;-75
2022/06/13 05:03:46;;;;;;;12.82;4.60;;;;;;;;;;5101199;28;20023;-71
2022/06/13 05:06:38;;;;;;;8.48;3.92;;;;;;;;;;5110319;27;20107;-70
2022/06/13 05:09:14;;;;;;;8.50;4.45;;;;;;;;;;5103524;28;20035;-76
2022/06/13 05:12:04;;;;;;;9.20;4.05;;;;;;;;;;5105420;28;20024;-75
2022/06/13 05:14:47;;;;;;;8.55;4.35;;;;;;;;;;5112348;27;20024;-75
2022/06/13 05:17:34;;;;;;;11.45;4.80;;;;;;;;;;5109691;28;20027;-75
2022/06/13 05:20:25;;;;;;;8.45;3.85;;;;;;;;;;5104358;28;20050;-71
2022/06/13 05:23:15;;;;;;;11.90;4.45;;;;;;;;;;5108345;28;20102;-72
2022/06/13 05:25:55;;;;;;;8.27;3.97;;;;;;;;;;5108064;27;20031;-75
2022/06/13 05:28:24;;;;;;;9.73;4.57;;;;;;;;;;5105133;27;20027;-72
2022/06/13 05:30:55;;;;;;;8.85;4.55;;;;;;;;;;5107165;27;20028;-75
2022/06/13 05:33:24;;;;;;;8.07;3.92;;;;;;;;;;5106809;28;20069;-71
2022/06/13 05:35:56;;;;;;;15.07;4.72;;;;;;;;;;5107625;28;20055;-75
2022/06/13 05:38:38;;;;;;;12.02;4.20;;;;;;;;;;5108020;28;20042;-72
2022/06/13 05:41:03;;;;;;;8.67;4.07;;;;;;;;;;5116602;27;20020;-71
2022/06/13 05:43:29;;;;;;;11.23;4.10;;;;;;;;;;5100992;27;20757;-75
2022/06/13 05:45:54;;;;;;;12.60;4.60;;;;;;;;;;5099917;28;20615;-74
2022/06/13 05:48:22;;;;;;;9.23;3.95;;;;;;;;;;5108120;28;20043;-72
2022/06/13 05:50:48;;;;;;;11.45;3.88;;;;;;;;;;5106819;28;20024;-71
2022/06/13 05:53:16;;;;;;;9.18;3.58;;;;;;;;;;5105189;28;20502;-74
2022/06/13 05:55:43;;;;;;;11.32;3.67;;;;;;;;;;5094746;27;20481;-71
2022/06/13 05:58:10;;;;;;;8.82;3.58;;;;;;;;;;5106742;28;20019;-75
2022/06/13 06:00:41;;;;;;;12.52;3.70;;;;;;;;;;5104808;27;20038;-75
2022/06/13 06:03:06;;;;;;;10.20;3.60;;;;;;;;;;5101448;28;20023;-73
2022/06/13 06:05:32;;;;;;;7.97;3.58;;;;;;;;;;5104399;28;20196;-71
2022/06/13 06:07:57;;;;;;;8.40;3.28;;;;;;;;;;5104779;28;20384;-75
2022/06/13 06:10:29;;;;;;;8.30;3.35;;;;;;;;;;5104270;28;20023;-75
2022/06/13 06:12:54;;;;;;;8.93;3.10;;;;;;;;;;5103777;27;20066;-73
2022/06/13 06:15:19;;;;;;;8.73;3.40;;;;;;;;;;5107833;28;20020;-71
2022/06/13 06:17:45;;;;;;;9.32;3.00;;;;;;;;;;5106711;28;20055;-71
2022/06/13 06:20:20;;;;;;;9.70;3.45;;;;;;;;;;5102773;28;20015;-71
2022/06/13 06:22:45;;;;;;;9.73;3.33;;;;;;;;;;5100074;28;20024;-72
2022/06/13 06:25:11;;;;;;;10.02;3.05;;;;;;;;;;5100415;28;20042;-72
2022/06/13 06:27:40;;;;;;;5.65;2.33;;;;;;;;;;5106479;28;20069;-71
2022/06/13 06:30:06;;;;;;;5.90;2.30;;;;;;;;;;5096517;28;20035;-75
2022/06/13 06:32:32;;;;;;;5.20;1.80;;;;;;;;;;5103073;28;20023;-71
2022/06/13 06:34:57;;;;;;;8.27;1.80;;;;;;;;;;5108941;28;20034;-75
2022/06/13 06:37:23;;;;;;;5.00;1.88;;;;;;;;;;5108864;27;20038;-74
2022/06/13 06:39:48;;;;;;;6.80;2.38;;;;;;;;;;5105157;28;20054;-75
2022/06/13 06:42:13;;;;;;;5.00;1.75;;;;;;;;;;5103334;28;20026;-75
2022/06/13 06:44:39;;;;;;;3.10;1.55;;;;;;;;;;5102494;28;20036;-72
2022/06/13 06:47:06;;;;;;;4.72;1.40;;;;;;;;;;5112426;28;20047;-72
2022/06/13 06:49:34;;;;;;;5.28;1.48;;;;;;;;;;5104397;28;20024;-75
2022/06/13 06:52:01;;;;;;;5.00;1.45;;;;;;;;;;5111352;28;20022;-71
2022/06/13 06:59:55;;;;;;;6.97;1.60;;;;;;;;;;5108640;28;20453;-73
2022/06/13 07:02:24;;;;;;;5.10;1.50;;;;;;;;;;5103984;28;20111;-75
2022/06/13 07:04:54;;;;;;;5.40;1.48;;;;;;;;;;5108824;28;20031;-72
2022/06/13 07:07:20;;;;;;;4.07;1.30;;;;;;;;;;5099326;28;20028;-74
2022/06/13 07:09:46;;;;;;;5.45;1.70;;;;;;;;;;5101730;28;20177;-74
2022/06/13 07:12:12;;;;;;;5.03;1.48;;;;;;;;;;5105599;28;20023;-75
2022/06/13 07:14:38;;;;;;;4.45;1.70;;;;;;;;;;5101919;28;20020;-73
2022/06/13 07:17:05;;;;;;;3.85;1.33;;;;;;;;;;5101572;27;20095;-73
2022/06/13 07:19:32;;;;;;;4.28;1.48;;;;;;;;;;5102287;27;20106;-76
2022/06/13 07:21:58;;;;;;;4.97;1.42;;;;;;;;;;5110304;28;20023;-74
2022/06/13 07:24:25;;;;;;;7.43;1.67;;;;;;;;;;5104475;28;20016;-75
2022/06/13 07:26:50;;;;;;;2.78;1.50;;;;;;;;;;5108707;28;20106;-75
2022/06/13 07:29:18;;;;;;;5.32;1.40;;;;;;;;;;5108467;28;20037;-74
2022/06/13 07:31:57;;;;;;;6.38;1.38;;;;;;;;;;5110129;27;20064;-76
2022/06/13 07:34:26;;;;;;;5.93;1.58;;;;;;;;;;5106657;28;20375;-76
2022/06/13 07:36:55;;;;;;;4.32;1.27;;;;;;;;;;5106221;28;20071;-73
2022/06/13 07:39:21;;;;;;;7.07;1.73;;;;;;;;;;5107742;28;20456;-76
2022/06/13 07:41:48;;;;;;;6.80;1.73;;;;;;;;;;5102569;28;20023;-75
2022/06/13 07:44:38;;;;;;;3.88;1.50;;;;;;;;;;5102872;28;20051;-75
2022/06/13 07:47:05;;;;;;;4.22;1.45;;;;;;;;;;5104868;28;20044;-75
2022/06/13 07:49:30;;;;;;;6.57;2.05;;;;;;;;;;5106194;27;20030;-76
2022/06/13 07:51:56;;;;;;;4.85;1.92;;;;;;;;;;5107409;28;20383;-73
2022/06/13 07:54:22;;;;;;;5.00;2.15;;;;;;;;;;5106838;28;20062;-73
2022/06/13 07:56:48;;;;;;;4.88;1.70;;;;;;;;;;5103884;28;20020;-75
2022/06/13 07:59:17;;;;;;;5.47;2.15;;;;;;;;;;5102639;28;20383;-76
2022/06/13 08:01:43;;;;;;;5.55;1.65;;;;;;;;;;5101722;28;20031;-73
2022/06/13 08:04:09;;;;;;;4.75;1.83;;;;;;;;;;5109199;28;20112;-74
2022/06/13 08:06:38;;;;;;;6.85;2.10;;;;;;;;;;5102797;27;20057;-73
2022/06/13 08:09:03;;;;;;;5.10;1.88;;;;;;;;;;5102854;28;20538;-76
2022/06/13 08:11:34;;;;;;;4.68;1.60;;;;;;;;;;5109015;28;20057;-74
2022/06/13 08:14:00;;;;;;;3.13;1.23;;;;;;;;;;5102923;28;20024;-76
2022/06/13 08:16:26;;;;;;;4.45;1.60;;;;;;;;;;5100518;28;20482;-73
2022/06/13 08:18:52;;;;;;;7.03;1.27;;;;;;;;;;5107974;28;20027;-73
2022/06/13 08:21:17;;;;;;;6.35;1.65;;;;;;;;;;5105640;28;20444;-73
2022/06/13 08:23:43;;;;;;;3.72;0.98;;;;;;;;;;5104510;28;20016;-76
2022/06/13 08:26:09;;;;;;;3.63;1.10;;;;;;;;;;5099726;28;20486;-75
2022/06/13 08:28:35;;;;;;;2.88;0.88;;;;;;;;;;5097710;28;20407;-73
2022/06/13 08:31:11;;;;;;;2.85;0.85;;;;;;;;;;5101059;28;20028;-74
2022/06/13 08:33:37;;;;;;;2.20;0.80;;;;;;;;;;5099465;28;20024;-75
2022/06/13 08:36:03;;;;;;;2.13;0.77;;;;;;;;;;5096053;28;20571;-75
2022/06/13 08:38:29;;;;;;;2.20;0.60;;;;;;;;;;5102160;28;20042;-73
2022/06/13 08:41:21;;;;;;;1.33;0.60;;;;;;;;;;5104472;28;20792;-75
2022/06/13 08:44:05;;;;;;;1.92;0.60;;;;;;;;;;5099862;27;20047;-74
2022/06/13 08:46:55;;;;;;;1.33;0.47;;;;;;;;;;5104927;28;20027;-75
2022/06/13 08:49:30;;;;;;;3.85;0.70;;;;;;;;;;5101139;27;20110;-75
2022/06/13 08:52:19;;;;;;;2.38;0.80;;;;;;;;;;5100867;28;20387;-75
2022/06/13 08:55:02;;;;;;;1.65;0.70;;;;;;;;;;5098794;27;20034;-72
2022/06/13 08:57:32;;;;;;;2.30;0.70;;;;;;;;;;5104654;28;20035;-76
2022/06/13 09:00:12;;;;;;;3.17;0.80;;;;;;;;;;5100545;27;20165;-76
2022/06/13 09:02:48;;;;;;;3.70;0.90;;;;;;;;;;5102390;28;20031;-73
2022/06/13 09:05:33;;;;;;;6.45;1.05;;;;;;;;;;5103908;28;20028;-76
2022/06/13 09:08:07;;;;;;;2.75;0.82;;;;;;;;;;5108236;27;20428;-73
2022/06/13 09:10:47;;;;;;;2.60;0.80;;;;;;;;;;5104561;28;20034;-76
2022/06/13 09:13:27;;;;;;;0.88;0.43;;;;;;;;;;5105356;27;20111;-75
2022/06/13 09:15:55;;;;;;;2.22;0.60;;;;;;;;;;5105593;27;20031;-75
2022/06/13 09:18:52;;;;;;;5.80;0.90;;;;;;;;;;5100884;27;20028;-75
2022/06/13 09:21:45;;;;;;;2.83;0.85;;;;;;;;;;5105633;27;20056;-73
2022/06/13 09:24:29;;;;;;;3.55;0.70;;;;;;;;;;5105478;27;20047;-72
2022/06/13 09:27:02;;;;;;;4.80;0.60;;;;;;;;;;5103423;27;20027;-75
2022/06/13 09:29:39;;;;;;;1.45;0.57;;;;;;;;;;5105417;27;20118;-72
2022/06/13 09:32:11;;;;;;;2.35;0.70;;;;;;;;;;5103224;27;20680;-72
2022/06/13 09:34:44;;;;;;;3.40;0.70;;;;;;;;;;5106676;27;20032;-75
2022/06/13 09:37:32;;;;;;;3.55;0.80;;;;;;;;;;5107144;27;20062;-75
2022/06/13 09:39:58;;;;;;;1.85;0.70;;;;;;;;;;5106570;28;20036;-73
2022/06/13 09:42:45;;;;;;;3.80;0.90;;;;;;;;;;5102297;28;20485;-73
2022/06/13 09:45:28;;;;;;;2.33;0.73;;;;;;;;;;5111898;28;20548;-75
2022/06/13 09:48:08;;;;;;;2.45;0.85;;;;;;;;;;5110750;28;20035;-76
2022/06/13 09:50:48;;;;;;;4.35;0.70;;;;;;;;;;5107970;28;20502;-75
2022/06/13 09:53:28;;;;;;;3.75;0.80;;;;;;;;;;5113348;28;20023;-74
2022/06/13 09:55:59;;;;;;;2.50;0.90;;;;;;;;;;5098334;28;20035;-76
2022/06/13 09:58:43;;;;;;;2.20;0.85;;;;;;;;;;5108154;28;20114;-73
2022/06/13 10:01:21;;;;;;;2.97;1.10;;;;;;;;;;5102166;28;20051;-72
2022/06/13 10:03:58;;;;;;;3.30;0.88;;;;;;;;;;5112722;28;20027;-76
2022/06/13 10:06:58;;;;;;;2.63;0.80;;;;;;;;;;5110637;28;20023;-76
2022/06/13 10:09:42;;;;;;;3.10;0.90;;;;;;;;;;5109773;28;20028;-75
2022/06/13 10:12:29;;;;;;;2.03;0.95;;;;;;;;;;5103253;28;20056;-73
2022/06/13 10:15:22;;;;;;;2.38;0.70;;;;;;;;;;5109040;28;20024;-75
2022/06/13 10:17:56;;;;;;;2.72;0.90;;;;;;;;;;5105621;28;20023;-80
2022/06/13 10:20:33;;;;;;;3.60;0.80;;;;;;;;;;5096828;28;20119;-74
2022/06/13 10:23:31;;;;;;;2.25;1.10;;;;;;;;;;5109120;28;20387;-77
2022/06/13 10:26:24;;;;;;;3.55;1.20;;;;;;;;;;5102289;28;20076;-75
2022/06/13 10:29:12;;;;;;;;;;;;;;;;;;5113454;28;20022;-73
2022/06/13 10:31:51;;;;;;;2.38;0.90;;;;;;;;;;5110009;27;20382;-74
2022/06/13 10:34:35;;;;;;;4.82;1.02;;;;;;;;;;5111868;28;20100;-73
2022/06/13 10:37:24;;;;;;;2.72;1.00;;;;;;;;;;5109706;28;20047;-74
2022/06/13 10:39:55;;;;;;;3.15;0.90;;;;;;;;;;5111401;28;20027;-75
2022/06/13 10:42:23;;;;;;;3.90;1.05;;;;;;;;;;5110102;28;20032;-73
2022/06/13 10:44:49;;;;;;;3.33;0.80;;;;;;;;;;5109306;28;20695;-73
2022/06/13 10:47:18;;;;;;;2.63;0.85;;;;;;;;;;5111172;28;20106;-73
2022/06/13 10:49:54;;;;;;;3.65;1.10;;;;;;;;;;5099766;28;20100;-73
2022/06/13 10:52:24;;;;;;;2.53;1.05;;;;;;;;;;5110171;28;20028;-75
2022/06/13 10:54:54;;;;;;;3.60;1.08;;;;;;;;;;5106669;27;20035;-74
2022/06/13 10:57:43;;;;;;;5.18;1.02;;;;;;;;;;5110141;28;20384;-76
2022/06/13 11:00:15;;;;;;;3.08;1.10;;;;;;;;;;5108586;28;20098;-73
2022/06/13 11:02:41;;;;;;;2.77;1.17;;;;;;;;;;5111404;28;20023;-73
2022/06/13 11:05:23;;;;;;;2.63;0.98;;;;;;;;;;5107440;28;20020;-73
2022/06/13 11:07:55;;;;;;;2.78;0.98;;;;;;;;;;5099805;28;20024;-75
2022/06/13 11:10:27;;;;;;;4.03;1.23;;;;;;;;;;5116681;27;20027;-76
2022/06/13 11:12:53;;;;;;;1.92;0.82;;;;;;;;;;5102514;28;20038;-74
2022/06/13 11:23:56;;;;;;;2.17;0.82;;;;;;;;;;5102944;28;20081;-73
2022/06/13 11:29:14;;;;;;;2.65;1.00;;;;;;;;;;5105933;28;20039;-76
2022/06/13 11:31:53;;;;;;;2.72;1.13;;;;;;;;;;5100676;28;20028;-71
2022/06/13 11:34:30;;;;;;;2.90;1.10;;;;;;;;;;5109784;28;20055;-70
2022/06/13 11:37:03;;;;;;;3.85;1.45;;;;;;;;;;5103846;28;20400;-73
2022/06/13 11:39:41;;;;;;;2.50;0.98;;;;;;;;;;5105201;28;20165;-73
2022/06/13 11:42:20;;;;;;;3.42;1.00;;;;;;;;;;5105606;28;20038;-72
2022/06/13 11:44:54;;;;;;;2.20;1.00;;;;;;;;;;5103957;28;20020;-70
2022/06/13 11:47:21;;;;;;;3.03;1.10;;;;;;;;;;5106863;28;20031;-71
2022/06/13 11:49:50;;;;;;;2.20;0.98;;;;;;;;;;5101879;28;20031;-76
2022/06/13 11:55:26;;;;;;;2.22;0.88;;;;;;;;;;5109496;28;20069;-71
2022/06/13 11:57:56;;;;;;;2.03;1.10;;;;;;;;;;5100181;28;20031;-76
2022/06/13 12:00:27;;;;;;;2.33;0.85;;;;;;;;;;5099367;28;20218;-72
2022/06/13 12:03:05;;;;;;;4.28;0.80;;;;;;;;;;5105468;28;20106;-75
2022/06/13 12:05:34;;;;;;;3.03;0.98;;;;;;;;;;5107054;28;20031;-74
2022/06/13 12:08:15;;;;;;;2.63;1.00;;;;;;;;;;5107665;28;20046;-70
2022/06/13 12:10:52;;;;;;;3.38;0.93;;;;;;;;;;5102720;28;20024;-72
2022/06/13 12:13:20;;;;;;;2.17;0.65;;;;;;;;;;5106881;28;20483;-75
2022/06/13 12:15:52;;;;;;;3.75;0.82;;;;;;;;;;5109359;27;20035;-72
2022/06/13 12:18:29;;;;;;;1.73;0.88;;;;;;;;;;5104290;27;20031;-76
2022/06/13 12:21:12;;;;;;;2.20;0.70;;;;;;;;;;5113792;28;20032;-72
2022/06/13 12:23:44;;;;;;;;;;;;;;;;;;5121664;27;20024;-75
2022/06/13 12:26:27;;;;;;;2.03;0.80;;;;;;;;;;5126288;27;20286;-76
2022/06/13 12:29:17;;;;;;;3.22;1.00;;;;;;;;;;5113628;28;20092;-76
2022/06/13 12:32:01;;;;;;;2.80;1.10;;;;;;;;;;5102626;28;20031;-75
2022/06/13 12:34:42;;;;;;;4.93;0.90;;;;;;;;;;5106664;28;20030;-72
2022/06/13 12:37:31;;;;;;;2.90;0.80;;;;;;;;;;5104633;28;20044;-70
2022/06/13 12:40:04;;;;;;;1.15;0.68;;;;;;;;;;5108728;28;20482;-74
2022/06/13 12:43:01;;;;;;;1.98;0.70;;;;;;;;;;5107389;28;20072;-72
2022/06/13 12:45:48;;;;;;;1.48;0.60;;;;;;;;;;5076193;28;20078;-70
2022/06/13 12:49:07;;;;;;;3.17;0.70;;;;;;;;;;5102910;28;20043;-72
2022/06/13 12:51:46;;;;;;;4.60;0.93;;;;;;;;;;5047946;28;20061;-71
2022/06/13 12:54:43;;;;;;;5.28;0.80;;;;;;;;;;5044670;28;20501;-70
2022/06/13 12:57:15;;;;;;;2.50;0.70;;;;;;;;;;5080332;27;20502;-76
2022/06/13 13:00:39;;;;;;;2.22;0.80;;;;;;;;;;5108796;28;20026;-75
2022/06/13 13:03:25;;;;;;;1.77;0.60;;;;;;;;;;5043936;28;20025;-73
2022/06/13 13:06:04;;;;;;;2.85;0.80;;;;;;;;;;5095625;27;20036;-75
2022/06/13 13:08:52;;;;;;;2.97;0.70;;;;;;;;;;5101804;28;20028;-72
2022/06/13 13:11:29;;;;;;;3.85;0.70;;;;;;;;;;5101028;28;20024;-74
2022/06/13 13:14:04;;;;;;;4.50;1.10;;;;;;;;;;5109939;28;20040;-75
2022/06/13 13:16:41;;;;;;;1.45;0.70;;;;;;;;;;5099266;27;20035;-75
2022/06/13 13:19:23;;;;;;;4.22;0.80;;;;;;;;;;5108473;27;20033;-72
2022/06/13 13:21:55;;;;;;;4.30;0.77;;;;;;;;;;5102234;28;20023;-75
2022/06/13 13:24:31;;;;;;;3.03;0.70;;;;;;;;;;5105255;28;20027;-71
2022/06/13 13:27:04;;;;;;;2.42;0.73;;;;;;;;;;5105264;28;20312;-70
2022/06/13 13:29:39;;;;;;;1.40;0.75;;;;;;;;;;5097557;28;20027;-73
2022/06/13 13:32:24;;;;;;;3.28;0.80;;;;;;;;;;5101704;27;20455;-70
2022/06/13 13:35:04;;;;;;;4.05;0.88;;;;;;;;;;5103736;28;20035;-70
2022/06/13 13:37:38;;;;;;;1.48;0.60;;;;;;;;;;5097966;28;20419;-70
2022/06/13 13:40:15;;;;;;;3.17;0.68;;;;;;;;;;5104220;27;20035;-71
2022/06/13 13:42:51;;;;;;;3.33;0.80;;;;;;;;;;5106621;27;20020;-70
2022/06/13 13:45:31;;;;;;;1.25;0.80;;;;;;;;;;5102195;27;20035;-71
2022/06/13 13:48:06;;;;;;;3.95;0.88;;;;;;;;;;5106681;28;20036;-75
2022/06/13 13:50:43;;;;;;;2.55;0.80;;;;;;;;;;5103749;28;20027;-73
2022/06/13 13:53:12;;;;;;;3.05;0.70;;;;;;;;;;5101494;28;20062;-75
2022/06/13 13:55:49;;;;;;;3.80;0.80;;;;;;;;;;5103550;27;20384;-75
2022/06/13 13:58:27;;;;;;;3.60;0.98;;;;;;;;;;5108636;28;20054;-73
2022/06/13 14:01:06;;;;;;;4.20;0.82;;;;;;;;;;5100011;28;20080;-72
2022/06/13 14:03:57;;;;;;;2.92;0.80;;;;;;;;;;5102413;28;20027;-75
2022/06/13 14:06:33;;;;;;;1.65;0.68;;;;;;;;;;5099795;28;20106;-75
2022/06/13 14:09:01;;;;;;;3.20;0.70;;;;;;;;;;5104523;28;20028;-72
2022/06/13 14:11:27;;;;;;;2.67;0.70;;;;;;;;;;5103938;28;20035;-76
2022/06/13 14:14:06;;;;;;;2.28;0.73;;;;;;;;;;5111477;27;20020;-76
2022/06/13 14:16:34;;;;;;;1.95;0.70;;;;;;;;;;5096335;27;20042;-74
2022/06/13 14:19:15;;;;;;;2.47;0.70;;;;;;;;;;5093409;27;20035;-75
2022/06/13 14:21:43;;;;;;;2.47;0.60;;;;;;;;;;5100849;28;20072;-75
2022/06/13 14:24:22;;;;;;;3.72;0.75;;;;;;;;;;5102974;28;20031;-74
2022/06/13 14:26:52;;;;;;;1.67;0.70;;;;;;;;;;5100599;28;20096;-75
2022/06/13 14:29:35;;;;;;;4.25;1.25;;;;;;;;;;5102555;28;20411;-74
2022/06/13 14:32:00;;;;;;;1.20;0.60;;;;;;;;;;5102456;28;20507;-74
2022/06/13 14:37:50;;;;;;;4.03;0.73;;;;;;;;;;5098328;27;20051;-74
2022/06/13 14:40:17;;;;;;;2.60;0.80;;;;;;;;;;5087694;27;20028;-76
2022/06/13 14:42:57;;;;;;;3.40;0.68;;;;;;;;;;5090022;28;20038;-74
2022/06/13 14:45:35;;;;;;;2.13;0.68;;;;;;;;;;5090653;28;20032;-72
2022/06/13 14:48:24;;;;;;;3.13;0.65;;;;;;;;;;5089056;28;20040;-75
2022/06/13 14:50:55;;;;;;;3.55;0.80;;;;;;;;;;5087748;27;20388;-74
2022/06/13 14:53:36;;;;;;;3.78;0.70;;;;;;;;;;5095022;28;20023;-73
2022/06/13 14:56:07;;;;;;;2.95;0.65;;;;;;;;;;5091889;27;20044;-76
2022/06/13 14:58:45;;;;;;;2.47;0.80;;;;;;;;;;5089374;28;20050;-72
2022/06/13 15:01:37;;;;;;;3.28;0.85;;;;;;;;;;5089602;27;20042;-74
2022/06/13 15:04:07;;;;;;;2.47;0.82;;;;;;;;;;5087409;28;20032;-74
2022/06/13 15:07:09;;;;;;;4.10;0.80;;;;;;;;;;5096152;27;20035;-71
2022/06/13 15:09:46;;;;;;;3.00;0.80;;;;;;;;;;5094446;28;20027;-75
2022/06/13 15:12:24;;;;;;;3.88;0.95;;;;;;;;;;5093241;28;20086;-74
2022/06/13 15:15:20;;;;;;;5.03;0.90;;;;;;;;;;5094640;27;20030;-75
2022/06/13 15:17:46;;;;;;;3.65;0.80;;;;;;;;;;5093227;28;20692;-74
2022/06/13 15:20:16;;;;;;;3.17;0.90;;;;;;;;;;5094049;28;20032;-76
2022/06/13 15:22:47;;;;;;;2.60;0.80;;;;;;;;;;5091592;27;20852;-73
2022/06/13 15:25:14;;;;;;;2.90;0.82;;;;;;;;;;5093111;28;20019;-75
2022/06/13 15:27:55;;;;;;;6.88;1.33;;;;;;;;;;5096594;28;20047;-71
2022/06/13 15:30:36;;;;;;;2.42;0.63;;;;;;;;;;5103414;28;20429;-75
2022/06/13 15:33:24;;;;;;;5.25;1.00;;;;;;;;;;5097794;28;20023;-73
2022/06/13 15:35:54;;;;;;;2.17;0.82;;;;;;;;;;5105918;28;20047;-72
2022/06/13 15:38:30;;;;;;;2.47;1.00;;;;;;;;;;5106128;28;20027;-72
2022/06/13 15:40:58;;;;;;;5.25;1.02;;;;;;;;;;5097360;28;20038;-71
2022/06/13 15:43:35;;;;;;;2.00;0.70;;;;;;;;;;5098818;28;20027;-75
2022/06/13 15:46:01;;;;;;;2.33;0.73;;;;;;;;;;5104684;28;20085;-71
2022/06/13 15:48:27;;;;;;;4.05;1.00;;;;;;;;;;5102064;28;20023;-74
2022/06/13 15:51:11;;;;;;;4.05;1.00;;;;;;;;;;5098511;27;20045;-75
2022/06/13 15:53:37;;;;;;;2.40;0.80;;;;;;;;;;5097221;28;20023;-74
2022/06/13 15:56:03;;;;;;;5.00;1.10;;;;;;;;;;5102990;28;20548;-72
2022/06/13 15:58:28;;;;;;;4.15;0.77;;;;;;;;;;5103936;28;20034;-73
2022/06/13 16:00:55;;;;;;;3.65;0.80;;;;;;;;;;5099429;28;20020;-75